sensor_id;sensor_type;location;lat;lon;timestamp;P1;durP1;ratioP1;P2;durP2;ratioP2
59105;SDS011;44891;50.204;8.132;2023-10-09T00:00:07;12.43;;;7.85;;
59105;SDS011;44891;50.204;8.132;2023-10-09T00:04:37;14.20;;;8.48;;
59105;SDS011;44891;50.204;8.132;2023-10-09T00:08:42;13.18;;;7.82;;
59105;SDS011;44891;50.204;8.132;2023-10-09T00:12:45;11.93;;;7.97;;
59105;SDS011;44891;50.204;8.132;2023-10-09T00:16:51;13.68;;;8.32;;
59105;SDS011;44891;50.204;8.132;2023-10-09T00:20:57;14.65;;;8.07;;
59105;SDS011;44891;50.204;8.132;2023-10-09T00:25:11;15.18;;;8.25;;
59105;SDS011;44891;50.204;8.132;2023-10-09T00:29:22;12.80;;;7.70;;
59105;SDS011;44891;50.204;8.132;2023-10-09T00:33:29;14.55;;;9.02;;
59105;SDS011;44891;50.204;8.132;2023-10-09T00:37:31;14.98;;;8.30;;
59105;SDS011;44891;50.204;8.132;2023-10-09T00:41:35;13.90;;;7.85;;
59105;SDS011;44891;50.204;8.132;2023-10-09T00:45:37;12.55;;;7.95;;
59105;SDS011;44891;50.204;8.132;2023-10-09T00:49:42;17.85;;;8.32;;
59105;SDS011;44891;50.204;8.132;2023-10-09T00:53:45;18.50;;;9.75;;
59105;SDS011;44891;50.204;8.132;2023-10-09T00:57:51;11.80;;;7.97;;
59105;SDS011;44891;50.204;8.132;2023-10-09T01:01:57;13.88;;;7.90;;
59105;SDS011;44891;50.204;8.132;2023-10-09T01:06:06;12.93;;;7.55;;
59105;SDS011;44891;50.204;8.132;2023-10-09T01:10:17;10.73;;;7.38;;
59105;SDS011;44891;50.204;8.132;2023-10-09T01:14:20;13.25;;;7.50;;
59105;SDS011;44891;50.204;8.132;2023-10-09T01:18:23;11.20;;;7.35;;
59105;SDS011;44891;50.204;8.132;2023-10-09T01:22:38;12.25;;;8.18;;
59105;SDS011;44891;50.204;8.132;2023-10-09T01:26:42;12.73;;;7.32;;
59105;SDS011;44891;50.204;8.132;2023-10-09T01:30:47;13.60;;;7.35;;
59105;SDS011;44891;50.204;8.132;2023-10-09T01:34:52;11.73;;;7.10;;
59105;SDS011;44891;50.204;8.132;2023-10-09T01:38:55;12.90;;;6.85;;
59105;SDS011;44891;50.204;8.132;2023-10-09T01:42:58;11.23;;;6.70;;
59105;SDS011;44891;50.204;8.132;2023-10-09T01:47:00;13.30;;;7.07;;
59105;SDS011;44891;50.204;8.132;2023-10-09T01:51:12;9.15;;;6.63;;
59105;SDS011;44891;50.204;8.132;2023-10-09T01:55:17;13.13;;;7.43;;
59105;SDS011;44891;50.204;8.132;2023-10-09T01:59:36;13.15;;;6.63;;
59105;SDS011;44891;50.204;8.132;2023-10-09T02:03:44;11.48;;;7.18;;
59105;SDS011;44891;50.204;8.132;2023-10-09T02:07:46;11.25;;;6.70;;
59105;SDS011;44891;50.204;8.132;2023-10-09T02:11:52;10.63;;;6.82;;
59105;SDS011;44891;50.204;8.132;2023-10-09T02:15:55;10.68;;;6.32;;
59105;SDS011;44891;50.204;8.132;2023-10-09T02:20:00;10.38;;;5.97;;
59105;SDS011;44891;50.204;8.132;2023-10-09T02:24:17;10.95;;;6.05;;
59105;SDS011;44891;50.204;8.132;2023-10-09T02:28:48;11.00;;;6.68;;
59105;SDS011;44891;50.204;8.132;2023-10-09T02:33:00;9.98;;;6.10;;
59105;SDS011;44891;50.204;8.132;2023-10-09T02:37:09;9.95;;;6.05;;
59105;SDS011;44891;50.204;8.132;2023-10-09T02:41:13;11.93;;;5.85;;
59105;SDS011;44891;50.204;8.132;2023-10-09T02:45:28;7.93;;;5.50;;
59105;SDS011;44891;50.204;8.132;2023-10-09T02:49:41;11.35;;;5.82;;
59105;SDS011;44891;50.204;8.132;2023-10-09T02:53:43;9.00;;;6.10;;
59105;SDS011;44891;50.204;8.132;2023-10-09T02:57:50;10.93;;;6.05;;
59105;SDS011;44891;50.204;8.132;2023-10-09T03:02:05;10.00;;;6.13;;
59105;SDS011;44891;50.204;8.132;2023-10-09T03:06:09;14.35;;;6.18;;
59105;SDS011;44891;50.204;8.132;2023-10-09T03:10:13;8.57;;;5.78;;
59105;SDS011;44891;50.204;8.132;2023-10-09T03:14:15;11.40;;;6.13;;
59105;SDS011;44891;50.204;8.132;2023-10-09T03:18:17;11.50;;;6.43;;
59105;SDS011;44891;50.204;8.132;2023-10-09T03:22:21;9.20;;;5.75;;
59105;SDS011;44891;50.204;8.132;2023-10-09T03:26:24;11.05;;;6.00;;
59105;SDS011;44891;50.204;8.132;2023-10-09T03:30:27;10.85;;;5.97;;
59105;SDS011;44891;50.204;8.132;2023-10-09T03:34:33;8.77;;;5.70;;
59105;SDS011;44891;50.204;8.132;2023-10-09T03:38:36;9.60;;;5.55;;
59105;SDS011;44891;50.204;8.132;2023-10-09T03:42:39;11.10;;;5.70;;
59105;SDS011;44891;50.204;8.132;2023-10-09T03:46:43;8.48;;;5.57;;
59105;SDS011;44891;50.204;8.132;2023-10-09T03:50:45;8.60;;;5.57;;
59105;SDS011;44891;50.204;8.132;2023-10-09T03:54:49;11.32;;;6.55;;
59105;SDS011;44891;50.204;8.132;2023-10-09T03:58:51;10.63;;;6.10;;
59105;SDS011;44891;50.204;8.132;2023-10-09T04:02:55;10.95;;;6.22;;
59105;SDS011;44891;50.204;8.132;2023-10-09T04:06:57;10.25;;;6.78;;
59105;SDS011;44891;50.204;8.132;2023-10-09T04:11:02;10.32;;;6.40;;
59105;SDS011;44891;50.204;8.132;2023-10-09T04:15:05;9.23;;;6.40;;
59105;SDS011;44891;50.204;8.132;2023-10-09T04:19:15;11.18;;;6.07;;
59105;SDS011;44891;50.204;8.132;2023-10-09T04:23:22;9.55;;;6.25;;
59105;SDS011;44891;50.204;8.132;2023-10-09T04:27:37;11.18;;;6.00;;
59105;SDS011;44891;50.204;8.132;2023-10-09T04:31:39;7.57;;;5.80;;
59105;SDS011;44891;50.204;8.132;2023-10-09T04:35:41;10.23;;;6.47;;
59105;SDS011;44891;50.204;8.132;2023-10-09T04:40:04;12.13;;;9.38;;
59105;SDS011;44891;50.204;8.132;2023-10-09T04:44:14;9.50;;;6.15;;
59105;SDS011;44891;50.204;8.132;2023-10-09T04:48:20;9.43;;;6.47;;
59105;SDS011;44891;50.204;8.132;2023-10-09T04:52:35;9.10;;;5.97;;
59105;SDS011;44891;50.204;8.132;2023-10-09T04:56:56;12.27;;;6.13;;
59105;SDS011;44891;50.204;8.132;2023-10-09T05:00:59;9.32;;;5.47;;
59105;SDS011;44891;50.204;8.132;2023-10-09T05:05:13;13.77;;;6.00;;
59105;SDS011;44891;50.204;8.132;2023-10-09T05:09:37;12.02;;;6.32;;
59105;SDS011;44891;50.204;8.132;2023-10-09T05:13:56;13.40;;;6.95;;
59105;SDS011;44891;50.204;8.132;2023-10-09T05:18:13;10.18;;;6.20;;
59105;SDS011;44891;50.204;8.132;2023-10-09T05:22:16;11.18;;;6.97;;
59105;SDS011;44891;50.204;8.132;2023-10-09T05:26:30;10.68;;;6.15;;
59105;SDS011;44891;50.204;8.132;2023-10-09T05:30:51;11.43;;;6.50;;
59105;SDS011;44891;50.204;8.132;2023-10-09T05:35:05;14.27;;;8.43;;
59105;SDS011;44891;50.204;8.132;2023-10-09T05:39:16;11.00;;;6.85;;
59105;SDS011;44891;50.204;8.132;2023-10-09T05:43:19;9.80;;;6.57;;
59105;SDS011;44891;50.204;8.132;2023-10-09T05:47:36;10.23;;;6.13;;
59105;SDS011;44891;50.204;8.132;2023-10-09T05:51:49;12.25;;;6.57;;
59105;SDS011;44891;50.204;8.132;2023-10-09T05:55:54;10.23;;;6.47;;
59105;SDS011;44891;50.204;8.132;2023-10-09T06:00:14;10.27;;;6.35;;
59105;SDS011;44891;50.204;8.132;2023-10-09T06:04:34;11.50;;;6.68;;
59105;SDS011;44891;50.204;8.132;2023-10-09T06:08:51;9.32;;;6.45;;
59105;SDS011;44891;50.204;8.132;2023-10-09T06:13:10;10.55;;;6.63;;
59105;SDS011;44891;50.204;8.132;2023-10-09T06:17:29;11.93;;;6.55;;
59105;SDS011;44891;50.204;8.132;2023-10-09T06:21:44;11.55;;;7.25;;
59105;SDS011;44891;50.204;8.132;2023-10-09T06:26:04;10.23;;;6.70;;
59105;SDS011;44891;50.204;8.132;2023-10-09T06:30:24;9.93;;;6.45;;
59105;SDS011;44891;50.204;8.132;2023-10-09T06:34:28;9.77;;;6.50;;
59105;SDS011;44891;50.204;8.132;2023-10-09T06:38:36;11.25;;;6.68;;
59105;SDS011;44891;50.204;8.132;2023-10-09T06:42:54;11.68;;;7.60;;
59105;SDS011;44891;50.204;8.132;2023-10-09T06:46:55;12.90;;;7.28;;
59105;SDS011;44891;50.204;8.132;2023-10-09T06:51:09;10.80;;;7.40;;
59105;SDS011;44891;50.204;8.132;2023-10-09T06:55:16;12.60;;;6.88;;
59105;SDS011;44891;50.204;8.132;2023-10-09T06:59:34;10.27;;;6.68;;
59105;SDS011;44891;50.204;8.132;2023-10-09T07:03:59;12.48;;;7.13;;
59105;SDS011;44891;50.204;8.132;2023-10-09T07:08:11;9.90;;;7.32;;
59105;SDS011;44891;50.204;8.132;2023-10-09T07:12:27;10.65;;;6.15;;
59105;SDS011;44891;50.204;8.132;2023-10-09T07:16:34;11.25;;;6.97;;
59105;SDS011;44891;50.204;8.132;2023-10-09T07:20:38;10.70;;;6.43;;
59105;SDS011;44891;50.204;8.132;2023-10-09T07:24:46;13.07;;;6.18;;
59105;SDS011;44891;50.204;8.132;2023-10-09T07:28:50;15.60;;;8.77;;
59105;SDS011;44891;50.204;8.132;2023-10-09T07:33:03;14.77;;;9.15;;
59105;SDS011;44891;50.204;8.132;2023-10-09T07:37:17;14.73;;;8.55;;
59105;SDS011;44891;50.204;8.132;2023-10-09T07:41:19;15.57;;;9.90;;
59105;SDS011;44891;50.204;8.132;2023-10-09T07:45:45;18.58;;;7.68;;
59105;SDS011;44891;50.204;8.132;2023-10-09T07:50:22;14.25;;;7.85;;
59105;SDS011;44891;50.204;8.132;2023-10-09T07:54:24;15.45;;;9.10;;
59105;SDS011;44891;50.204;8.132;2023-10-09T07:58:33;12.68;;;7.40;;
59105;SDS011;44891;50.204;8.132;2023-10-09T08:02:46;17.38;;;9.60;;
59105;SDS011;44891;50.204;8.132;2023-10-09T08:06:50;18.20;;;10.50;;
59105;SDS011;44891;50.204;8.132;2023-10-09T08:10:52;13.60;;;7.97;;
59105;SDS011;44891;50.204;8.132;2023-10-09T08:15:11;14.27;;;6.35;;
59105;SDS011;44891;50.204;8.132;2023-10-09T08:19:27;9.98;;;5.70;;
59105;SDS011;44891;50.204;8.132;2023-10-09T08:23:36;10.65;;;5.15;;
59105;SDS011;44891;50.204;8.132;2023-10-09T08:27:49;10.95;;;6.03;;
59105;SDS011;44891;50.204;8.132;2023-10-09T08:31:56;9.82;;;5.60;;
59105;SDS011;44891;50.204;8.132;2023-10-09T08:36:18;9.50;;;5.18;;
59105;SDS011;44891;50.204;8.132;2023-10-09T08:40:28;9.63;;;6.22;;
59105;SDS011;44891;50.204;8.132;2023-10-09T08:44:33;21.13;;;14.38;;
59105;SDS011;44891;50.204;8.132;2023-10-09T08:48:37;18.35;;;14.73;;
59105;SDS011;44891;50.204;8.132;2023-10-09T08:52:40;12.73;;;9.43;;
59105;SDS011;44891;50.204;8.132;2023-10-09T08:56:43;11.60;;;7.63;;
59105;SDS011;44891;50.204;8.132;2023-10-09T09:00:51;13.30;;;7.60;;
59105;SDS011;44891;50.204;8.132;2023-10-09T09:04:56;14.60;;;9.35;;
59105;SDS011;44891;50.204;8.132;2023-10-09T09:08:58;14.05;;;9.15;;
59105;SDS011;44891;50.204;8.132;2023-10-09T09:13:15;12.30;;;7.60;;
59105;SDS011;44891;50.204;8.132;2023-10-09T09:17:22;17.17;;;10.38;;
59105;SDS011;44891;50.204;8.132;2023-10-09T09:21:33;15.93;;;9.27;;
59105;SDS011;44891;50.204;8.132;2023-10-09T09:25:41;14.43;;;10.60;;
59105;SDS011;44891;50.204;8.132;2023-10-09T09:29:47;15.43;;;11.40;;
59105;SDS011;44891;50.204;8.132;2023-10-09T09:33:55;20.25;;;10.80;;
59105;SDS011;44891;50.204;8.132;2023-10-09T09:37:59;14.48;;;10.07;;
59105;SDS011;44891;50.204;8.132;2023-10-09T09:42:05;12.57;;;9.07;;
59105;SDS011;44891;50.204;8.132;2023-10-09T09:46:12;11.73;;;8.18;;
59105;SDS011;44891;50.204;8.132;2023-10-09T09:50:17;14.23;;;8.00;;
59105;SDS011;44891;50.204;8.132;2023-10-09T09:54:26;9.25;;;5.20;;
59105;SDS011;44891;50.204;8.132;2023-10-09T09:58:33;10.27;;;5.60;;
59105;SDS011;44891;50.204;8.132;2023-10-09T10:02:45;9.45;;;5.63;;
59105;SDS011;44891;50.204;8.132;2023-10-09T10:06:48;10.07;;;5.32;;
59105;SDS011;44891;50.204;8.132;2023-10-09T10:10:51;8.77;;;5.47;;
59105;SDS011;44891;50.204;8.132;2023-10-09T10:14:58;9.27;;;5.25;;
59105;SDS011;44891;50.204;8.132;2023-10-09T10:19:10;8.45;;;4.80;;
59105;SDS011;44891;50.204;8.132;2023-10-09T10:23:24;8.35;;;5.00;;
59105;SDS011;44891;50.204;8.132;2023-10-09T10:27:33;9.85;;;4.78;;
59105;SDS011;44891;50.204;8.132;2023-10-09T10:31:51;10.18;;;5.40;;
59105;SDS011;44891;50.204;8.132;2023-10-09T10:35:56;8.63;;;4.93;;
59105;SDS011;44891;50.204;8.132;2023-10-09T10:39:58;8.60;;;4.68;;
59105;SDS011;44891;50.204;8.132;2023-10-09T10:44:04;9.25;;;4.82;;
59105;SDS011;44891;50.204;8.132;2023-10-09T10:48:20;9.05;;;4.85;;
59105;SDS011;44891;50.204;8.132;2023-10-09T10:52:39;7.72;;;4.68;;
59105;SDS011;44891;50.204;8.132;2023-10-09T10:56:44;10.25;;;5.10;;
59105;SDS011;44891;50.204;8.132;2023-10-09T11:00:51;7.78;;;4.50;;
59105;SDS011;44891;50.204;8.132;2023-10-09T11:05:12;9.52;;;5.03;;
59105;SDS011;44891;50.204;8.132;2023-10-09T11:09:25;8.38;;;5.03;;
59105;SDS011;44891;50.204;8.132;2023-10-09T11:13:35;7.93;;;4.53;;
59105;SDS011;44891;50.204;8.132;2023-10-09T11:17:57;8.43;;;4.57;;
59105;SDS011;44891;50.204;8.132;2023-10-09T11:22:06;8.77;;;4.78;;
59105;SDS011;44891;50.204;8.132;2023-10-09T11:26:30;7.07;;;4.25;;
59105;SDS011;44891;50.204;8.132;2023-10-09T11:30:41;8.02;;;4.70;;
59105;SDS011;44891;50.204;8.132;2023-10-09T11:34:46;10.18;;;4.90;;
59105;SDS011;44891;50.204;8.132;2023-10-09T11:38:53;8.77;;;4.70;;
59105;SDS011;44891;50.204;8.132;2023-10-09T11:43:14;8.60;;;4.75;;
59105;SDS011;44891;50.204;8.132;2023-10-09T11:47:16;8.07;;;4.80;;
59105;SDS011;44891;50.204;8.132;2023-10-09T11:51:33;8.48;;;4.95;;
59105;SDS011;44891;50.204;8.132;2023-10-09T11:55:38;7.53;;;4.45;;
59105;SDS011;44891;50.204;8.132;2023-10-09T11:59:42;6.93;;;4.60;;
59105;SDS011;44891;50.204;8.132;2023-10-09T12:03:45;8.98;;;4.50;;
59105;SDS011;44891;50.204;8.132;2023-10-09T12:07:50;8.75;;;4.53;;
59105;SDS011;44891;50.204;8.132;2023-10-09T12:11:55;10.32;;;4.90;;
59105;SDS011;44891;50.204;8.132;2023-10-09T12:16:02;8.68;;;5.03;;
59105;SDS011;44891;50.204;8.132;2023-10-09T12:20:08;8.05;;;4.43;;
59105;SDS011;44891;50.204;8.132;2023-10-09T12:24:15;8.98;;;4.55;;
59105;SDS011;44891;50.204;8.132;2023-10-09T12:28:19;8.90;;;4.43;;
59105;SDS011;44891;50.204;8.132;2023-10-09T12:32:23;8.75;;;4.30;;
59105;SDS011;44891;50.204;8.132;2023-10-09T12:36:25;7.93;;;4.38;;
59105;SDS011;44891;50.204;8.132;2023-10-09T12:40:27;8.88;;;4.63;;
59105;SDS011;44891;50.204;8.132;2023-10-09T12:44:32;9.57;;;4.18;;
59105;SDS011;44891;50.204;8.132;2023-10-09T12:48:36;8.27;;;4.45;;
59105;SDS011;44891;50.204;8.132;2023-10-09T12:52:38;7.78;;;4.60;;
59105;SDS011;44891;50.204;8.132;2023-10-09T12:56:40;6.45;;;4.20;;
59105;SDS011;44891;50.204;8.132;2023-10-09T13:00:42;9.30;;;4.20;;
59105;SDS011;44891;50.204;8.132;2023-10-09T13:04:51;11.07;;;4.40;;
59105;SDS011;44891;50.204;8.132;2023-10-09T13:08:53;8.70;;;4.40;;
59105;SDS011;44891;50.204;8.132;2023-10-09T13:13:00;8.05;;;4.53;;
59105;SDS011;44891;50.204;8.132;2023-10-09T13:17:05;10.80;;;5.15;;
59105;SDS011;44891;50.204;8.132;2023-10-09T13:21:12;14.55;;;5.18;;
59105;SDS011;44891;50.204;8.132;2023-10-09T13:25:16;10.25;;;5.20;;
59105;SDS011;44891;50.204;8.132;2023-10-09T13:29:25;9.77;;;4.57;;
59105;SDS011;44891;50.204;8.132;2023-10-09T13:33:27;12.88;;;5.00;;
59105;SDS011;44891;50.204;8.132;2023-10-09T13:37:38;9.10;;;4.50;;
59105;SDS011;44891;50.204;8.132;2023-10-09T13:41:40;8.93;;;4.40;;
59105;SDS011;44891;50.204;8.132;2023-10-09T13:45:43;9.25;;;4.53;;
59105;SDS011;44891;50.204;8.132;2023-10-09T13:49:50;7.85;;;4.43;;
59105;SDS011;44891;50.204;8.132;2023-10-09T13:53:55;7.70;;;4.30;;
59105;SDS011;44891;50.204;8.132;2023-10-09T13:57:57;7.35;;;4.20;;
59105;SDS011;44891;50.204;8.132;2023-10-09T14:01:59;8.00;;;4.10;;
59105;SDS011;44891;50.204;8.132;2023-10-09T14:06:03;7.28;;;4.32;;
59105;SDS011;44891;50.204;8.132;2023-10-09T14:10:14;8.15;;;4.70;;
59105;SDS011;44891;50.204;8.132;2023-10-09T14:14:18;7.57;;;4.20;;
59105;SDS011;44891;50.204;8.132;2023-10-09T14:18:25;9.85;;;4.70;;
59105;SDS011;44891;50.204;8.132;2023-10-09T14:22:30;9.23;;;4.47;;
59105;SDS011;44891;50.204;8.132;2023-10-09T14:26:33;6.72;;;4.50;;
59105;SDS011;44891;50.204;8.132;2023-10-09T14:30:36;9.15;;;4.32;;
59105;SDS011;44891;50.204;8.132;2023-10-09T14:34:43;7.72;;;4.53;;
59105;SDS011;44891;50.204;8.132;2023-10-09T14:38:50;8.02;;;4.50;;
59105;SDS011;44891;50.204;8.132;2023-10-09T14:42:56;7.47;;;4.47;;
59105;SDS011;44891;50.204;8.132;2023-10-09T14:46:59;7.28;;;4.40;;
59105;SDS011;44891;50.204;8.132;2023-10-09T14:51:02;7.35;;;4.57;;
59105;SDS011;44891;50.204;8.132;2023-10-09T14:55:06;7.93;;;4.50;;
59105;SDS011;44891;50.204;8.132;2023-10-09T14:59:11;11.73;;;5.07;;
59105;SDS011;44891;50.204;8.132;2023-10-09T15:03:14;8.50;;;4.85;;
59105;SDS011;44891;50.204;8.132;2023-10-09T15:07:16;7.30;;;4.40;;
59105;SDS011;44891;50.204;8.132;2023-10-09T15:11:21;8.57;;;4.50;;
59105;SDS011;44891;50.204;8.132;2023-10-09T15:15:25;8.23;;;4.57;;
59105;SDS011;44891;50.204;8.132;2023-10-09T15:19:31;8.70;;;4.82;;
59105;SDS011;44891;50.204;8.132;2023-10-09T15:23:34;9.55;;;4.82;;
59105;SDS011;44891;50.204;8.132;2023-10-09T15:27:37;9.35;;;5.03;;
59105;SDS011;44891;50.204;8.132;2023-10-09T15:31:41;9.88;;;5.18;;
59105;SDS011;44891;50.204;8.132;2023-10-09T15:35:43;8.68;;;4.57;;
59105;SDS011;44891;50.204;8.132;2023-10-09T15:39:47;10.73;;;4.85;;
59105;SDS011;44891;50.204;8.132;2023-10-09T15:43:50;10.02;;;4.93;;
59105;SDS011;44891;50.204;8.132;2023-10-09T15:47:53;8.35;;;4.38;;
59105;SDS011;44891;50.204;8.132;2023-10-09T15:51:56;7.30;;;4.78;;
59105;SDS011;44891;50.204;8.132;2023-10-09T15:56:00;9.05;;;5.05;;
59105;SDS011;44891;50.204;8.132;2023-10-09T16:00:03;7.95;;;4.65;;
59105;SDS011;44891;50.204;8.132;2023-10-09T16:04:15;13.35;;;4.90;;
59105;SDS011;44891;50.204;8.132;2023-10-09T16:08:17;8.48;;;5.35;;
59105;SDS011;44891;50.204;8.132;2023-10-09T16:12:23;11.65;;;5.47;;
59105;SDS011;44891;50.204;8.132;2023-10-09T16:16:27;17.15;;;5.53;;
59105;SDS011;44891;50.204;8.132;2023-10-09T16:20:32;10.25;;;4.80;;
59105;SDS011;44891;50.204;8.132;2023-10-09T16:24:34;8.73;;;4.78;;
59105;SDS011;44891;50.204;8.132;2023-10-09T16:28:37;8.02;;;5.03;;
59105;SDS011;44891;50.204;8.132;2023-10-09T16:32:40;11.10;;;5.03;;
59105;SDS011;44891;50.204;8.132;2023-10-09T16:36:44;10.30;;;5.22;;
59105;SDS011;44891;50.204;8.132;2023-10-09T16:40:51;11.88;;;5.30;;
59105;SDS011;44891;50.204;8.132;2023-10-09T16:44:55;10.48;;;5.20;;
59105;SDS011;44891;50.204;8.132;2023-10-09T16:48:57;10.30;;;5.00;;
59105;SDS011;44891;50.204;8.132;2023-10-09T16:53:06;8.90;;;4.95;;
59105;SDS011;44891;50.204;8.132;2023-10-09T16:57:11;9.27;;;5.35;;
59105;SDS011;44891;50.204;8.132;2023-10-09T17:01:13;9.02;;;4.93;;
59105;SDS011;44891;50.204;8.132;2023-10-09T17:05:21;9.15;;;5.50;;
59105;SDS011;44891;50.204;8.132;2023-10-09T17:09:29;9.82;;;5.15;;
59105;SDS011;44891;50.204;8.132;2023-10-09T17:13:31;13.85;;;6.15;;
59105;SDS011;44891;50.204;8.132;2023-10-09T17:17:33;10.43;;;5.60;;
59105;SDS011;44891;50.204;8.132;2023-10-09T17:21:36;10.98;;;5.25;;
59105;SDS011;44891;50.204;8.132;2023-10-09T17:25:39;10.52;;;5.68;;
59105;SDS011;44891;50.204;8.132;2023-10-09T17:29:45;11.35;;;5.78;;
59105;SDS011;44891;50.204;8.132;2023-10-09T17:33:47;9.00;;;5.78;;
59105;SDS011;44891;50.204;8.132;2023-10-09T17:37:49;14.15;;;5.88;;
59105;SDS011;44891;50.204;8.132;2023-10-09T17:41:54;10.93;;;5.47;;
59105;SDS011;44891;50.204;8.132;2023-10-09T17:45:56;11.10;;;6.03;;
59105;SDS011;44891;50.204;8.132;2023-10-09T17:49:59;10.32;;;6.32;;
59105;SDS011;44891;50.204;8.132;2023-10-09T17:54:01;10.63;;;6.82;;
59105;SDS011;44891;50.204;8.132;2023-10-09T17:58:04;11.80;;;6.32;;
59105;SDS011;44891;50.204;8.132;2023-10-09T18:02:07;11.50;;;7.30;;
59105;SDS011;44891;50.204;8.132;2023-10-09T18:06:09;12.15;;;8.00;;
59105;SDS011;44891;50.204;8.132;2023-10-09T18:10:13;13.30;;;10.70;;
59105;SDS011;44891;50.204;8.132;2023-10-09T18:14:18;10.75;;;7.10;;
59105;SDS011;44891;50.204;8.132;2023-10-09T18:18:20;11.02;;;7.03;;
59105;SDS011;44891;50.204;8.132;2023-10-09T18:22:23;10.00;;;6.60;;
59105;SDS011;44891;50.204;8.132;2023-10-09T18:26:26;12.23;;;7.93;;
59105;SDS011;44891;50.204;8.132;2023-10-09T18:30:32;11.40;;;7.20;;
59105;SDS011;44891;50.204;8.132;2023-10-09T18:34:39;9.30;;;6.63;;
59105;SDS011;44891;50.204;8.132;2023-10-09T18:38:41;10.55;;;6.80;;
59105;SDS011;44891;50.204;8.132;2023-10-09T18:42:45;11.23;;;6.72;;
59105;SDS011;44891;50.204;8.132;2023-10-09T18:46:50;10.82;;;7.22;;
59105;SDS011;44891;50.204;8.132;2023-10-09T18:50:54;13.07;;;7.30;;
59105;SDS011;44891;50.204;8.132;2023-10-09T18:54:56;12.25;;;7.20;;
59105;SDS011;44891;50.204;8.132;2023-10-09T18:58:59;9.93;;;6.47;;
59105;SDS011;44891;50.204;8.132;2023-10-09T19:03:03;11.55;;;7.72;;
59105;SDS011;44891;50.204;8.132;2023-10-09T19:07:11;12.73;;;8.15;;
59105;SDS011;44891;50.204;8.132;2023-10-09T19:11:14;13.63;;;7.38;;
59105;SDS011;44891;50.204;8.132;2023-10-09T19:15:16;10.93;;;8.00;;
59105;SDS011;44891;50.204;8.132;2023-10-09T19:19:20;11.88;;;6.30;;
59105;SDS011;44891;50.204;8.132;2023-10-09T19:23:25;9.88;;;6.00;;
59105;SDS011;44891;50.204;8.132;2023-10-09T19:27:28;13.50;;;7.75;;
59105;SDS011;44891;50.204;8.132;2023-10-09T19:31:31;10.02;;;6.43;;
59105;SDS011;44891;50.204;8.132;2023-10-09T19:35:35;11.65;;;6.65;;
59105;SDS011;44891;50.204;8.132;2023-10-09T19:39:41;13.75;;;6.97;;
59105;SDS011;44891;50.204;8.132;2023-10-09T19:43:43;12.32;;;7.25;;
59105;SDS011;44891;50.204;8.132;2023-10-09T19:47:45;10.52;;;7.20;;
59105;SDS011;44891;50.204;8.132;2023-10-09T19:51:50;12.27;;;7.60;;
59105;SDS011;44891;50.204;8.132;2023-10-09T19:55:52;13.77;;;8.23;;
59105;SDS011;44891;50.204;8.132;2023-10-09T19:59:56;13.68;;;7.07;;
59105;SDS011;44891;50.204;8.132;2023-10-09T20:03:58;13.00;;;8.45;;
59105;SDS011;44891;50.204;8.132;2023-10-09T20:08:02;14.95;;;9.05;;
59105;SDS011;44891;50.204;8.132;2023-10-09T20:12:04;11.63;;;7.65;;
59105;SDS011;44891;50.204;8.132;2023-10-09T20:16:06;12.32;;;7.28;;
59105;SDS011;44891;50.204;8.132;2023-10-09T20:20:09;10.15;;;6.70;;
59105;SDS011;44891;50.204;8.132;2023-10-09T20:24:14;11.57;;;7.03;;
59105;SDS011;44891;50.204;8.132;2023-10-09T20:28:16;9.50;;;6.75;;
59105;SDS011;44891;50.204;8.132;2023-10-09T20:32:18;9.80;;;7.18;;
59105;SDS011;44891;50.204;8.132;2023-10-09T20:36:20;10.35;;;7.43;;
59105;SDS011;44891;50.204;8.132;2023-10-09T20:40:29;10.50;;;7.40;;
59105;SDS011;44891;50.204;8.132;2023-10-09T20:44:31;11.43;;;7.28;;
59105;SDS011;44891;50.204;8.132;2023-10-09T20:48:35;11.68;;;7.18;;
59105;SDS011;44891;50.204;8.132;2023-10-09T20:52:38;13.13;;;8.00;;
59105;SDS011;44891;50.204;8.132;2023-10-09T20:56:41;13.13;;;8.00;;
59105;SDS011;44891;50.204;8.132;2023-10-09T21:00:44;14.20;;;8.73;;
59105;SDS011;44891;50.204;8.132;2023-10-09T21:04:46;24.77;;;14.95;;
59105;SDS011;44891;50.204;8.132;2023-10-09T21:08:48;14.15;;;9.07;;
59105;SDS011;44891;50.204;8.132;2023-10-09T21:12:52;19.67;;;12.02;;
59105;SDS011;44891;50.204;8.132;2023-10-09T21:16:55;24.73;;;16.38;;
59105;SDS011;44891;50.204;8.132;2023-10-09T21:20:57;23.15;;;15.85;;
59105;SDS011;44891;50.204;8.132;2023-10-09T21:25:00;14.52;;;9.15;;
59105;SDS011;44891;50.204;8.132;2023-10-09T21:29:03;16.33;;;9.32;;
59105;SDS011;44891;50.204;8.132;2023-10-09T21:33:05;12.65;;;8.15;;
59105;SDS011;44891;50.204;8.132;2023-10-09T21:37:08;10.13;;;7.13;;
59105;SDS011;44891;50.204;8.132;2023-10-09T21:41:10;10.93;;;7.05;;
59105;SDS011;44891;50.204;8.132;2023-10-09T21:45:14;11.52;;;7.20;;
59105;SDS011;44891;50.204;8.132;2023-10-09T21:49:18;11.18;;;6.65;;
59105;SDS011;44891;50.204;8.132;2023-10-09T21:53:20;9.35;;;6.80;;
59105;SDS011;44891;50.204;8.132;2023-10-09T21:57:23;10.52;;;6.88;;
59105;SDS011;44891;50.204;8.132;2023-10-09T22:01:26;13.20;;;7.20;;
59105;SDS011;44891;50.204;8.132;2023-10-09T22:05:29;10.35;;;7.35;;
59105;SDS011;44891;50.204;8.132;2023-10-09T22:09:31;11.20;;;7.38;;
59105;SDS011;44891;50.204;8.132;2023-10-09T22:13:33;13.48;;;7.60;;
59105;SDS011;44891;50.204;8.132;2023-10-09T22:17:37;10.80;;;6.93;;
59105;SDS011;44891;50.204;8.132;2023-10-09T22:21:44;15.35;;;7.93;;
59105;SDS011;44891;50.204;8.132;2023-10-09T22:25:48;11.18;;;6.93;;
59105;SDS011;44891;50.204;8.132;2023-10-09T22:34:07;11.00;;;7.80;;
59105;SDS011;44891;50.204;8.132;2023-10-09T22:38:12;10.65;;;7.07;;
59105;SDS011;44891;50.204;8.132;2023-10-09T22:42:16;11.73;;;7.05;;
59105;SDS011;44891;50.204;8.132;2023-10-09T22:46:18;13.77;;;7.60;;
59105;SDS011;44891;50.204;8.132;2023-10-09T22:50:23;11.88;;;7.60;;
59105;SDS011;44891;50.204;8.132;2023-10-09T22:58:36;11.23;;;7.40;;
59105;SDS011;44891;50.204;8.132;2023-10-09T23:02:39;10.80;;;7.20;;
59105;SDS011;44891;50.204;8.132;2023-10-09T23:06:53;11.60;;;7.10;;
59105;SDS011;44891;50.204;8.132;2023-10-09T23:11:04;13.93;;;7.63;;
59105;SDS011;44891;50.204;8.132;2023-10-09T23:15:10;12.73;;;7.00;;
59105;SDS011;44891;50.204;8.132;2023-10-09T23:19:30;12.82;;;7.53;;
59105;SDS011;44891;50.204;8.132;2023-10-09T23:23:45;10.68;;;7.18;;
59105;SDS011;44891;50.204;8.132;2023-10-09T23:27:49;12.60;;;7.65;;
59105;SDS011;44891;50.204;8.132;2023-10-09T23:31:52;13.43;;;7.35;;
59105;SDS011;44891;50.204;8.132;2023-10-09T23:35:58;12.18;;;6.60;;
59105;SDS011;44891;50.204;8.132;2023-10-09T23:40:07;12.27;;;6.97;;
59105;SDS011;44891;50.204;8.132;2023-10-09T23:44:16;10.73;;;7.22;;
59105;SDS011;44891;50.204;8.132;2023-10-09T23:48:21;10.65;;;7.53;;
59105;SDS011;44891;50.204;8.132;2023-10-09T23:52:25;10.70;;;7.15;;
59105;SDS011;44891;50.204;8.132;2023-10-09T23:56:30;10.98;;;6.95;;
